createdAt,value
2018-07-22T00:00:14.180Z,100812.81
2018-07-22T00:01:19.709Z,100812.81
2018-07-22T00:02:24.859Z,100811.50
2018-07-22T00:03:30.174Z,100812.94
2018-07-22T00:04:36.118Z,100818.97
2018-07-22T00:05:41.617Z,100820.12
2018-07-22T00:06:47.090Z,100822.91
2018-07-22T00:07:52.584Z,100819.09
2018-07-22T00:08:58.052Z,100818.62
2018-07-22T00:10:03.634Z,100822.53
2018-07-22T00:11:09.060Z,100830.82
2018-07-22T00:12:14.537Z,100829.61
2018-07-22T00:13:19.982Z,100831.86
2018-07-22T00:14:25.615Z,100832.31
2018-07-22T00:15:31.034Z,100829.55
2018-07-22T00:16:36.924Z,100832.97
2018-07-22T00:17:42.931Z,100827.77
2018-07-22T00:18:48.353Z,100830.77
2018-07-22T00:19:53.828Z,100828.27
2018-07-22T00:20:59.245Z,100831.84
2018-07-22T00:22:04.903Z,100829.48
2018-07-22T00:23:10.490Z,100831.62
2018-07-22T00:24:15.949Z,100831.71
2018-07-22T00:25:21.373Z,100826.08
2018-07-22T00:26:26.740Z,100832.00
2018-07-22T00:27:32.151Z,100833.67
2018-07-22T00:28:37.748Z,100834.88
2018-07-22T00:29:43.138Z,100837.88
2018-07-22T00:30:48.598Z,100838.22
2018-07-22T00:31:54.077Z,100832.19
2018-07-22T00:32:59.520Z,100836.19
2018-07-22T00:34:05.081Z,100837.58
2018-07-22T00:35:12.064Z,100832.50
2018-07-22T00:36:17.540Z,100830.46
2018-07-22T00:37:23.120Z,100832.12
2018-07-22T00:38:28.620Z,100830.47
2018-07-22T00:39:34.095Z,100832.69
2018-07-22T00:40:39.552Z,100831.22
2018-07-22T00:41:45.051Z,100834.08
2018-07-22T00:42:50.620Z,100834.27
2018-07-22T00:43:56.110Z,100837.98
2018-07-22T00:45:01.519Z,100838.47
2018-07-22T00:46:07.102Z,100837.43
2018-07-22T00:47:12.840Z,100842.38
2018-07-22T00:48:18.245Z,100838.65
2018-07-22T00:49:23.659Z,100836.78
2018-07-22T00:50:29.044Z,100837.35
2018-07-22T00:51:34.499Z,100834.19
2018-07-22T00:52:40.637Z,100827.42
2018-07-22T00:53:46.094Z,100831.33
2018-07-22T00:54:51.499Z,100826.59
2018-07-22T00:55:56.914Z,100828.16
2018-07-22T00:57:02.360Z,100835.06
2018-07-22T00:58:08.173Z,100832.37
2018-07-22T00:59:13.739Z,100832.45
2018-07-22T01:00:19.580Z,100827.17
2018-07-22T01:01:25.044Z,100832.37
2018-07-22T01:02:30.582Z,100830.95
2018-07-22T01:03:36.014Z,100830.98
2018-07-22T01:04:41.469Z,100830.98
2018-07-22T01:05:46.917Z,100830.03
2018-07-22T01:06:52.537Z,100834.67
2018-07-22T01:07:58.017Z,100837.27
2018-07-22T01:09:03.570Z,100837.18
2018-07-22T01:10:09.113Z,100834.97
2018-07-22T01:11:14.702Z,100835.31
2018-07-22T01:12:20.511Z,100835.70
2018-07-22T01:13:25.972Z,100832.50
2018-07-22T01:14:31.450Z,100835.19
2018-07-22T01:15:37.004Z,100832.45
2018-07-22T01:16:42.569Z,100831.77
2018-07-22T01:17:48.010Z,100842.73
2018-07-22T01:18:53.437Z,100841.13
2018-07-22T01:19:58.858Z,100838.09
2018-07-22T01:21:04.054Z,100839.27
2018-07-22T01:22:09.496Z,100836.13
2018-07-22T01:23:14.888Z,100838.16
2018-07-22T01:24:20.334Z,100837.59
2018-07-22T01:25:26.201Z,100839.90
2018-07-22T01:26:31.682Z,100838.08
2018-07-22T01:27:37.193Z,100838.50
2018-07-22T01:28:42.596Z,100836.38
2018-07-22T01:29:48.088Z,100835.38
2018-07-22T01:30:53.625Z,100843.06
2018-07-22T01:31:59.038Z,100842.95
2018-07-22T01:33:04.498Z,100841.86
2018-07-22T01:34:10.013Z,100842.51
2018-07-22T01:35:15.409Z,100844.62
2018-07-22T01:36:20.941Z,100845.17
2018-07-22T01:37:26.477Z,100840.41
2018-07-22T01:38:31.885Z,100839.66
2018-07-22T01:39:37.389Z,100843.55
2018-07-22T01:40:42.842Z,100843.11
2018-07-22T01:41:48.727Z,100848.22
2018-07-22T01:42:54.215Z,100855.77
2018-07-22T01:43:59.657Z,100855.42
2018-07-22T01:45:05.014Z,100854.37
2018-07-22T01:46:10.320Z,100853.89
2018-07-22T01:47:16.330Z,100855.42
2018-07-22T01:48:21.761Z,100854.76
2018-07-22T01:49:27.204Z,100859.56
2018-07-22T01:50:32.628Z,100856.97
2018-07-22T01:51:38.049Z,100854.92
2018-07-22T01:52:43.499Z,100857.80
2018-07-22T01:53:48.989Z,100852.41
2018-07-22T01:54:54.428Z,100853.33
2018-07-22T01:55:59.836Z,100856.03
2018-07-22T01:57:05.235Z,100855.28
2018-07-22T01:58:10.701Z,100850.09
2018-07-22T01:59:16.125Z,100851.39
2018-07-22T02:00:21.597Z,100854.03
2018-07-22T02:01:27.025Z,100852.75
2018-07-22T02:02:32.490Z,100857.48
2018-07-22T02:03:38.745Z,100855.74
2018-07-22T02:04:44.252Z,100849.88
2018-07-22T02:05:49.648Z,100854.88
2018-07-22T02:06:55.060Z,100857.04
2018-07-22T02:08:00.507Z,100853.31
2018-07-22T02:09:08.964Z,100853.47
2018-07-22T02:10:14.400Z,100853.08
2018-07-22T02:11:19.865Z,100848.13
2018-07-22T02:12:25.274Z,100852.48
2018-07-22T02:13:30.751Z,100849.42
2018-07-22T02:14:36.191Z,100857.41
2018-07-22T02:15:41.608Z,100853.08
2018-07-22T02:16:47.078Z,100853.36
2018-07-22T02:17:52.615Z,100852.65
2018-07-22T02:18:58.020Z,100851.11
2018-07-22T02:20:03.680Z,100849.81
2018-07-22T02:21:09.116Z,100855.01
2018-07-22T02:22:14.511Z,100853.83
2018-07-22T02:23:20.030Z,100853.44
2018-07-22T02:24:25.463Z,100853.75
2018-07-22T02:25:30.864Z,100851.44
2018-07-22T02:26:36.328Z,100856.94
2018-07-22T02:27:41.768Z,100855.91
2018-07-22T02:28:47.165Z,100851.86
2018-07-22T02:29:52.680Z,100858.59
2018-07-22T02:30:58.123Z,100847.27
2018-07-22T02:32:03.574Z,100856.19
2018-07-22T02:33:09.027Z,100855.16
2018-07-22T02:34:15.187Z,100858.23
2018-07-22T02:35:20.600Z,100858.00
2018-07-22T02:36:26.036Z,100857.72
2018-07-22T02:37:31.499Z,100851.31
2018-07-22T02:38:36.872Z,100857.72
2018-07-22T02:39:42.488Z,100858.82
2018-07-22T02:40:47.921Z,100855.67
2018-07-22T02:41:53.320Z,100858.27
2018-07-22T02:42:59.286Z,100855.80
2018-07-22T02:44:04.778Z,100858.23
2018-07-22T02:45:10.342Z,100849.23
2018-07-22T02:46:15.789Z,100854.11
2018-07-22T02:47:21.280Z,100854.02
2018-07-22T02:48:26.801Z,100850.91
2018-07-22T02:49:32.229Z,100850.72
2018-07-22T02:50:37.616Z,100850.36
2018-07-22T02:51:43.086Z,100847.26
2018-07-22T02:52:48.568Z,100847.29
2018-07-22T02:53:54.601Z,100851.62
2018-07-22T02:55:00.075Z,100855.52
2018-07-22T02:56:05.549Z,100852.25
2018-07-22T02:57:10.989Z,100856.61
2018-07-22T02:58:16.453Z,100855.31
2018-07-22T02:59:22.209Z,100847.14
2018-07-22T03:00:27.772Z,100848.04
2018-07-22T03:01:36.181Z,100851.42
2018-07-22T03:02:41.580Z,100851.86
2018-07-22T03:03:46.965Z,100851.58
2018-07-22T03:04:52.421Z,100852.88
2018-07-22T03:05:57.544Z,100858.42
2018-07-22T03:07:02.894Z,100851.58
2018-07-22T03:08:08.097Z,100859.44
2018-07-22T03:09:13.509Z,100859.98
2018-07-22T03:10:18.974Z,100865.64
2018-07-22T03:11:24.429Z,100866.30
2018-07-22T03:12:29.851Z,100862.77
2018-07-22T03:13:35.236Z,100864.66
2018-07-22T03:14:41.148Z,100857.63
2018-07-22T03:15:46.975Z,100861.08
2018-07-22T03:16:52.424Z,100861.64
2018-07-22T03:17:57.829Z,100854.33
2018-07-22T03:19:03.295Z,100854.62
2018-07-22T03:20:09.186Z,100856.53
2018-07-22T03:21:15.099Z,100857.29
2018-07-22T03:22:20.541Z,100853.81
2018-07-22T03:23:26.067Z,100853.73
2018-07-22T03:24:31.476Z,100851.14
2018-07-22T03:25:36.873Z,100857.86
2018-07-22T03:26:42.345Z,100861.05
2018-07-22T03:27:47.756Z,100863.09
2018-07-22T03:28:53.350Z,100860.51
2018-07-22T03:29:58.790Z,100864.87
2018-07-22T03:31:04.196Z,100862.08
2018-07-22T03:32:09.344Z,100865.92
2018-07-22T03:33:14.689Z,100863.05
2018-07-22T03:34:20.181Z,100868.44
2018-07-22T03:35:25.596Z,100867.69
2018-07-22T03:36:31.021Z,100870.44
2018-07-22T03:37:36.513Z,100874.64
2018-07-22T03:38:41.928Z,100872.13
2018-07-22T03:39:47.336Z,100868.85
2018-07-22T03:40:52.728Z,100869.86
2018-07-22T03:41:58.152Z,100868.78
2018-07-22T03:43:03.998Z,100868.09
2018-07-22T03:44:09.672Z,100873.44
2018-07-22T03:45:15.106Z,100874.95
2018-07-22T03:46:20.593Z,100876.55
2018-07-22T03:47:26.037Z,100874.95
2018-07-22T03:48:31.221Z,100874.87
2018-07-22T03:49:36.529Z,100873.42
2018-07-22T03:50:41.945Z,100870.67
2018-07-22T03:51:47.348Z,100875.00
2018-07-22T03:52:52.865Z,100874.72
2018-07-22T03:53:58.337Z,100875.19
2018-07-22T03:55:03.841Z,100878.84
2018-07-22T03:56:09.376Z,100883.19
2018-07-22T03:57:14.828Z,100882.11
2018-07-22T03:58:20.342Z,100885.25
2018-07-22T03:59:25.821Z,100881.75
2018-07-22T04:00:31.237Z,100887.22
2018-07-22T04:01:36.709Z,100886.86
2018-07-22T04:02:42.185Z,100891.58
2018-07-22T04:03:47.648Z,100887.69
2018-07-22T04:04:53.092Z,100898.53
2018-07-22T04:05:59.328Z,100885.50
2018-07-22T04:07:04.909Z,100892.27
2018-07-22T04:08:10.306Z,100897.46
2018-07-22T04:09:15.789Z,100889.91
2018-07-22T04:10:21.281Z,100896.95
2018-07-22T04:11:26.773Z,100898.78
2018-07-22T04:12:32.198Z,100895.65
2018-07-22T04:13:37.600Z,100895.04
2018-07-22T04:14:43.101Z,100895.58
2018-07-22T04:15:48.564Z,100893.20
2018-07-22T04:16:53.996Z,100889.67
2018-07-22T04:17:59.477Z,100895.31
2018-07-22T04:19:04.948Z,100893.27
2018-07-22T04:20:10.485Z,100888.09
2018-07-22T04:21:15.930Z,100889.38
2018-07-22T04:22:21.436Z,100892.39
2018-07-22T04:23:26.844Z,100888.63
2018-07-22T04:24:32.277Z,100893.12
2018-07-22T04:25:37.710Z,100892.50
2018-07-22T04:26:43.189Z,100893.45
2018-07-22T04:27:48.605Z,100901.05
2018-07-22T04:28:54.041Z,100907.13
2018-07-22T04:29:59.445Z,100904.02
2018-07-22T04:31:04.836Z,100907.48
2018-07-22T04:32:10.281Z,100897.26
2018-07-22T04:33:15.721Z,100905.79
2018-07-22T04:34:21.167Z,100903.50
2018-07-22T04:35:26.762Z,100904.75
2018-07-22T04:36:32.323Z,100907.30
2018-07-22T04:37:37.768Z,100905.83
2018-07-22T04:38:43.239Z,100896.84
2018-07-22T04:39:48.657Z,100903.76
2018-07-22T04:40:54.064Z,100899.58
2018-07-22T04:41:59.557Z,100898.13
2018-07-22T04:43:05.323Z,100899.26
2018-07-22T04:44:10.768Z,100907.33
2018-07-22T04:45:16.291Z,100903.17
2018-07-22T04:46:21.881Z,100908.88
2018-07-22T04:47:27.328Z,100907.98
2018-07-22T04:48:32.864Z,100915.14
2018-07-22T04:49:38.453Z,100910.86
2018-07-22T04:50:43.857Z,100913.75
2018-07-22T04:51:49.452Z,100922.31
2018-07-22T04:52:54.906Z,100926.86
2018-07-22T04:54:00.337Z,100923.80
2018-07-22T04:55:06.148Z,100924.27
2018-07-22T04:56:11.604Z,100931.24
2018-07-22T04:57:17.052Z,100930.77
2018-07-22T04:58:22.530Z,100930.77
2018-07-22T04:59:28.022Z,100929.09
2018-07-22T05:00:33.432Z,100936.06
2018-07-22T05:01:39.969Z,100928.44
2018-07-22T05:02:46.573Z,100933.73
2018-07-22T05:03:52.050Z,100932.52
2018-07-22T05:04:57.453Z,100932.82
2018-07-22T05:06:02.840Z,100941.53
2018-07-22T05:07:08.342Z,100938.93
2018-07-22T05:08:13.727Z,100942.00
2018-07-22T05:09:19.232Z,100943.69
2018-07-22T05:10:24.707Z,100943.69
2018-07-22T05:11:30.256Z,100951.77
2018-07-22T05:12:36.184Z,100947.03
2018-07-22T05:13:41.621Z,100944.05
2018-07-22T05:14:47.064Z,100949.34
2018-07-22T05:15:52.518Z,100947.48
2018-07-22T05:16:57.924Z,100941.92
2018-07-22T05:18:03.402Z,100947.39
2018-07-22T05:19:08.796Z,100953.63
2018-07-22T05:20:14.204Z,100945.45
2018-07-22T05:21:19.665Z,100950.48
2018-07-22T05:22:25.137Z,100952.91
2018-07-22T05:23:30.556Z,100950.65
2018-07-22T05:24:36.001Z,100951.95
2018-07-22T05:25:41.464Z,100949.73
2018-07-22T05:26:46.941Z,100956.06
2018-07-22T05:27:52.512Z,100952.91
2018-07-22T05:28:57.935Z,100948.91
2018-07-22T05:30:03.132Z,100949.56
2018-07-22T05:31:08.505Z,100948.91
2018-07-22T05:32:13.924Z,100953.64
2018-07-22T05:33:19.357Z,100953.17
2018-07-22T05:34:24.949Z,100952.25
2018-07-22T05:35:30.378Z,100953.08
2018-07-22T05:36:36.377Z,100954.50
2018-07-22T05:37:41.773Z,100954.55
2018-07-22T05:38:47.289Z,100957.19
2018-07-22T05:39:52.684Z,100956.54
2018-07-22T05:40:58.171Z,100958.14
2018-07-22T05:42:03.798Z,100960.92
2018-07-22T05:43:09.233Z,100964.91
2018-07-22T05:44:14.696Z,100963.04
2018-07-22T05:45:20.148Z,100962.39
2018-07-22T05:46:25.553Z,100964.06
2018-07-22T05:47:31.369Z,100963.92
2018-07-22T05:48:37.260Z,100966.08
2018-07-22T05:49:42.729Z,100967.71
2018-07-22T05:50:48.166Z,100964.45
2018-07-22T05:51:53.592Z,100969.47
2018-07-22T05:52:59.376Z,100963.93
2018-07-22T05:54:04.819Z,100967.72
2018-07-22T05:55:10.209Z,100972.47
2018-07-22T05:56:15.730Z,100975.27
2018-07-22T05:57:21.168Z,100971.52
2018-07-22T05:58:26.685Z,100976.64
2018-07-22T05:59:32.279Z,100976.35
2018-07-22T06:00:37.729Z,100982.78
2018-07-22T06:01:43.234Z,100981.03
2018-07-22T06:02:48.673Z,100984.56
2018-07-22T06:03:55.325Z,100983.85
2018-07-22T06:05:00.772Z,100980.86
2018-07-22T06:06:07.388Z,100982.83
2018-07-22T06:07:12.792Z,100989.42
2018-07-22T06:08:18.162Z,100988.59
2018-07-22T06:09:23.302Z,100986.30
2018-07-22T06:10:28.930Z,100989.70
2018-07-22T06:11:34.389Z,100986.36
2018-07-22T06:12:39.812Z,100993.33
2018-07-22T06:13:45.428Z,100994.61
2018-07-22T06:14:50.946Z,100994.89
2018-07-22T06:15:56.446Z,100997.31
2018-07-22T06:17:01.611Z,101000.18
2018-07-22T06:18:07.425Z,101002.22
2018-07-22T06:19:12.890Z,100996.52
2018-07-22T06:20:18.781Z,101001.80
2018-07-22T06:21:24.181Z,100997.55
2018-07-22T06:22:29.652Z,100999.96
2018-07-22T06:23:35.192Z,101002.73
2018-07-22T06:24:40.693Z,101001.05
2018-07-22T06:25:46.173Z,100998.66
2018-07-22T06:26:51.576Z,100999.48
2018-07-22T06:27:57.062Z,101000.76
2018-07-22T06:29:02.498Z,101005.37
2018-07-22T06:30:08.301Z,101001.36
2018-07-22T06:31:13.724Z,101000.20
2018-07-22T06:32:19.241Z,101003.52
2018-07-22T06:33:24.729Z,101000.13
2018-07-22T06:34:30.177Z,101001.59
2018-07-22T06:35:35.683Z,101004.05
2018-07-22T06:36:40.867Z,101006.18
2018-07-22T06:37:46.558Z,101006.95
2018-07-22T06:38:52.182Z,101004.56
2018-07-22T06:39:57.857Z,101009.36
2018-07-22T06:41:03.386Z,101004.68
2018-07-22T06:42:08.872Z,101009.22
2018-07-22T06:43:14.313Z,101012.66
2018-07-22T06:44:19.775Z,101011.25
2018-07-22T06:45:25.228Z,101019.08
2018-07-22T06:46:30.706Z,101018.55
2018-07-22T06:47:36.163Z,101014.49
2018-07-22T06:48:41.586Z,101015.42
2018-07-22T06:49:47.024Z,101016.23
2018-07-22T06:50:52.831Z,101016.19
2018-07-22T06:51:58.762Z,101018.12
2018-07-22T06:53:04.200Z,101020.41
2018-07-22T06:54:09.869Z,101022.77
2018-07-22T06:55:15.296Z,101019.95
2018-07-22T06:56:21.504Z,101021.80
2018-07-22T06:57:26.965Z,101021.06
2018-07-22T06:58:32.561Z,101022.59
2018-07-22T06:59:38.042Z,101026.52
2018-07-22T07:00:43.457Z,101028.69
2018-07-22T07:01:48.898Z,101022.53
2018-07-22T07:02:54.318Z,101031.26
2018-07-22T07:03:59.788Z,101031.02
2018-07-22T07:05:05.507Z,101025.90
2018-07-22T07:06:10.886Z,101035.14
2018-07-22T07:07:16.390Z,101032.33
2018-07-22T07:08:21.853Z,101033.61
2018-07-22T07:09:27.318Z,101042.08
2018-07-22T07:10:32.753Z,101036.17
2018-07-22T07:11:38.578Z,101038.10
2018-07-22T07:12:44.898Z,101043.46
2018-07-22T07:13:50.345Z,101046.08
2018-07-22T07:14:55.756Z,101041.58
2018-07-22T07:16:01.341Z,101041.24
2018-07-22T07:17:06.826Z,101041.77
2018-07-22T07:18:12.367Z,101042.30
2018-07-22T07:19:17.824Z,101043.27
2018-07-22T07:20:23.352Z,101038.39
2018-07-22T07:21:28.793Z,101048.41
2018-07-22T07:22:34.215Z,101045.28
2018-07-22T07:23:39.637Z,101044.36
2018-07-22T07:24:45.037Z,101044.12
2018-07-22T07:25:50.524Z,101048.66
2018-07-22T07:26:55.981Z,101044.84
2018-07-22T07:28:01.595Z,101047.08
2018-07-22T07:29:07.099Z,101047.94
2018-07-22T07:30:12.476Z,101047.05
2018-07-22T07:31:17.937Z,101049.83
2018-07-22T07:32:23.376Z,101049.03
2018-07-22T07:33:28.897Z,101048.95
2018-07-22T07:34:34.397Z,101054.97
2018-07-22T07:35:39.818Z,101051.57
2018-07-22T07:36:45.276Z,101048.31
2018-07-22T07:37:50.677Z,101047.31
2018-07-22T07:38:56.100Z,101044.84
2018-07-22T07:40:01.536Z,101046.66
2018-07-22T07:41:07.420Z,101049.67
2018-07-22T07:42:12.982Z,101043.19
2018-07-22T07:43:18.825Z,101048.58
2018-07-22T07:44:24.262Z,101043.93
2018-07-22T07:45:29.729Z,101047.50
2018-07-22T07:46:35.161Z,101047.41
2018-07-22T07:47:41.102Z,101048.50
2018-07-22T07:48:46.558Z,101049.94
2018-07-22T07:49:52.053Z,101049.63
2018-07-22T07:50:57.560Z,101049.88
2018-07-22T07:52:02.998Z,101049.59
2018-07-22T07:53:08.912Z,101050.08
2018-07-22T07:54:14.353Z,101052.59
2018-07-22T07:55:19.865Z,101057.08
2018-07-22T07:56:25.292Z,101058.53
2018-07-22T07:57:30.820Z,101059.58
2018-07-22T07:58:36.318Z,101059.75
2018-07-22T07:59:41.776Z,101057.83
2018-07-22T08:00:47.382Z,101058.91
2018-07-22T08:01:52.756Z,101062.62
2018-07-22T08:02:58.222Z,101054.81
2018-07-22T08:04:03.747Z,101059.58
2018-07-22T08:05:09.149Z,101060.30
2018-07-22T08:06:14.592Z,101058.77
2018-07-22T08:07:20.034Z,101061.86
2018-07-22T08:08:25.518Z,101063.06
2018-07-22T08:09:30.962Z,101057.69
2018-07-22T08:10:36.421Z,101061.17
2018-07-22T08:11:41.919Z,101065.22
2018-07-22T08:12:47.332Z,101054.97
2018-07-22T08:13:52.876Z,101059.54
2018-07-22T08:14:58.346Z,101059.16
2018-07-22T08:16:03.794Z,101056.92
2018-07-22T08:17:09.617Z,101057.85
2018-07-22T08:18:15.220Z,101062.61
2018-07-22T08:19:20.754Z,101062.00
2018-07-22T08:20:26.200Z,101069.14
2018-07-22T08:21:31.717Z,101066.52
2018-07-22T08:22:37.549Z,101069.86
2018-07-22T08:23:43.041Z,101069.05
2018-07-22T08:24:48.552Z,101068.83
2018-07-22T08:25:53.988Z,101065.01
2018-07-22T08:26:59.444Z,101064.52
2018-07-22T08:28:04.949Z,101063.59
2018-07-22T08:29:27.678Z,101060.14
2018-07-22T08:30:33.176Z,101066.81
2018-07-22T08:31:38.577Z,101068.46
2018-07-22T08:32:44.069Z,101069.32
2018-07-22T08:33:49.497Z,101070.03
2018-07-22T08:34:54.910Z,101074.85
2018-07-22T08:36:00.365Z,101071.62
2018-07-22T08:37:05.876Z,101075.55
2018-07-22T08:38:11.288Z,101068.05
2018-07-22T08:39:17.831Z,101069.10
2018-07-22T08:40:23.297Z,101077.34
2018-07-22T08:41:28.760Z,101070.86
2018-07-22T08:42:34.314Z,101070.85
2018-07-22T08:43:39.740Z,101076.19
2018-07-22T08:44:45.985Z,101069.05
2018-07-22T08:45:54.864Z,101071.94
2018-07-22T08:47:00.802Z,101070.86
2018-07-22T08:48:07.004Z,101069.92
2018-07-22T08:49:13.944Z,101073.05
2018-07-22T08:50:19.473Z,101075.91
2018-07-22T08:51:24.952Z,101075.92
2018-07-22T08:52:30.593Z,101072.08
2018-07-22T08:53:36.052Z,101075.77
2018-07-22T08:54:41.528Z,101085.30
2018-07-22T08:55:46.968Z,101080.38
2018-07-22T08:56:52.381Z,101084.33
2018-07-22T08:57:57.901Z,101087.80
2018-07-22T08:59:03.740Z,101086.47
2018-07-22T09:00:08.901Z,101085.98
2018-07-22T09:01:14.302Z,101086.94
2018-07-22T09:02:19.782Z,101087.81
2018-07-22T09:03:25.268Z,101089.72
2018-07-22T09:04:30.379Z,101083.75
2018-07-22T09:05:35.757Z,101084.09
2018-07-22T09:06:41.206Z,101092.36
2018-07-22T09:07:46.674Z,101086.72
2018-07-22T09:08:52.213Z,101084.20
2018-07-22T09:09:57.608Z,101082.30
2018-07-22T09:11:03.038Z,101082.45
2018-07-22T09:12:08.726Z,101078.95
2018-07-22T09:13:14.184Z,101084.66
2018-07-22T09:14:20.051Z,101085.92
2018-07-22T09:15:25.644Z,101088.53
2018-07-22T09:16:31.165Z,101083.25
2018-07-22T09:17:36.637Z,101090.01
2018-07-22T09:18:42.114Z,101090.47
2018-07-22T09:19:47.534Z,101088.91
2018-07-22T09:20:53.018Z,101088.33
2018-07-22T09:21:58.167Z,101087.19
2018-07-22T09:23:03.629Z,101082.78
2018-07-22T09:24:09.296Z,101088.58
2018-07-22T09:25:14.753Z,101081.50
2018-07-22T09:26:20.249Z,101089.11
2018-07-22T09:27:25.727Z,101092.41
2018-07-22T09:28:31.198Z,101097.43
2018-07-22T09:29:36.628Z,101090.00
2018-07-22T09:30:42.101Z,101095.14
2018-07-22T09:31:47.579Z,101093.80
2018-07-22T09:32:53.014Z,101102.14
2018-07-22T09:33:59.557Z,101093.98
2018-07-22T09:35:05.261Z,101094.34
2018-07-22T09:36:10.865Z,101088.52
2018-07-22T09:37:16.265Z,101092.30
2018-07-22T09:38:21.741Z,101093.66
2018-07-22T09:39:27.204Z,101096.30
2018-07-22T09:40:32.672Z,101094.48
2018-07-22T09:41:38.193Z,101096.30
2018-07-22T09:42:43.678Z,101095.75
2018-07-22T09:43:49.249Z,101089.17
2018-07-22T09:44:54.679Z,101095.10
2018-07-22T09:46:00.137Z,101098.31
2018-07-22T09:47:05.688Z,101096.62
2018-07-22T09:48:11.173Z,101091.08
2018-07-22T09:49:16.574Z,101091.53
2018-07-22T09:50:21.812Z,101093.33
2018-07-22T09:51:27.248Z,101098.29
2018-07-22T09:52:32.718Z,101099.48
2018-07-22T09:53:38.197Z,101100.03
2018-07-22T09:54:43.653Z,101098.71
2018-07-22T09:55:49.763Z,101095.78
2018-07-22T09:56:55.240Z,101098.14
2018-07-22T09:58:00.669Z,101098.92
2018-07-22T09:59:06.185Z,101105.21
2018-07-22T10:00:13.445Z,101099.46
2018-07-22T10:01:18.952Z,101103.98
2018-07-22T10:02:24.489Z,101101.97
2018-07-22T10:03:30.885Z,101104.92
2018-07-22T10:04:36.538Z,101107.79
2018-07-22T10:05:42.065Z,101100.43
2018-07-22T10:06:47.599Z,101102.88
2018-07-22T10:07:53.189Z,101105.96
2018-07-22T10:08:58.432Z,101100.25
2018-07-22T10:10:03.911Z,101102.94
2018-07-22T10:11:09.435Z,101104.27
2018-07-22T10:12:14.905Z,101102.45
2018-07-22T10:13:20.390Z,101103.53
2018-07-22T10:14:25.909Z,101101.95
2018-07-22T10:15:31.700Z,101099.03
2018-07-22T10:16:37.389Z,101097.13
2018-07-22T10:17:42.898Z,101098.70
2018-07-22T10:18:48.337Z,101096.77
2018-07-22T10:19:53.789Z,101097.25
2018-07-22T10:20:59.197Z,101097.75
2018-07-22T10:22:04.672Z,101102.00
2018-07-22T10:23:10.252Z,101101.38
2018-07-22T10:24:15.705Z,101095.66
2018-07-22T10:25:21.202Z,101099.61
2018-07-22T10:26:26.650Z,101098.42
2018-07-22T10:27:32.145Z,101099.16
2018-07-22T10:28:37.598Z,101099.58
2018-07-22T10:29:42.968Z,101103.11
2018-07-22T10:30:48.427Z,101107.17
2018-07-22T10:31:53.904Z,101101.63
2018-07-22T10:32:59.368Z,101101.96
2018-07-22T10:34:04.800Z,101103.86
2018-07-22T10:35:10.386Z,101104.33
2018-07-22T10:36:15.904Z,101107.41
2018-07-22T10:37:21.381Z,101105.09
2018-07-22T10:38:26.865Z,101104.73
2018-07-22T10:39:32.316Z,101104.93
2018-07-22T10:40:37.777Z,101108.34
2018-07-22T10:41:43.195Z,101104.38
2018-07-22T10:42:49.023Z,101100.69
2018-07-22T10:43:54.441Z,101106.88
2018-07-22T10:44:59.870Z,101106.56
2018-07-22T10:46:05.377Z,101103.50
2018-07-22T10:47:10.829Z,101104.21
2018-07-22T10:48:16.310Z,101105.94
2018-07-22T10:49:21.792Z,101111.85
2018-07-22T10:50:27.285Z,101107.81
2018-07-22T10:51:32.709Z,101107.32
2018-07-22T10:52:38.236Z,101103.77
2018-07-22T10:53:43.713Z,101101.98
2018-07-22T10:54:49.142Z,101101.09
2018-07-22T10:55:54.842Z,101100.53
2018-07-22T10:57:00.338Z,101101.30
2018-07-22T10:58:06.369Z,101095.45
2018-07-22T10:59:11.825Z,101099.47
2018-07-22T11:00:17.254Z,101097.20
2018-07-22T11:01:22.703Z,101101.73
2018-07-22T11:02:28.355Z,101099.66
2018-07-22T11:03:33.884Z,101100.23
2018-07-22T11:04:39.387Z,101099.56
2018-07-22T11:05:44.918Z,101098.25
2018-07-22T11:06:50.477Z,101096.91
2018-07-22T11:07:55.819Z,101095.49
2018-07-22T11:09:01.359Z,101088.58
2018-07-22T11:10:07.445Z,101090.72
2018-07-22T11:11:12.901Z,101087.65
2018-07-22T11:12:18.483Z,101087.80
2018-07-22T11:13:24.017Z,101094.23
2018-07-22T11:14:29.518Z,101094.17
2018-07-22T11:15:35.083Z,101097.86
2018-07-22T11:16:40.489Z,101093.67
2018-07-22T11:17:45.913Z,101091.73
2018-07-22T11:18:51.468Z,101102.95
2018-07-22T11:19:56.949Z,101090.98
2018-07-22T11:21:02.403Z,101095.00
2018-07-22T11:22:08.346Z,101102.14
2018-07-22T11:23:13.773Z,101094.50
2018-07-22T11:24:19.664Z,101097.10
2018-07-22T11:25:25.351Z,101095.78
2018-07-22T11:26:30.784Z,101094.79
2018-07-22T11:27:36.326Z,101092.44
2018-07-22T11:28:41.805Z,101093.34
2018-07-22T11:29:47.231Z,101100.97
2018-07-22T11:30:52.740Z,101092.70
2018-07-22T11:31:58.212Z,101093.69
2018-07-22T11:33:03.661Z,101095.27
2018-07-22T11:34:09.065Z,101093.74
2018-07-22T11:35:14.547Z,101099.70
2018-07-22T11:36:20.113Z,101092.37
2018-07-22T11:37:25.296Z,101093.38
2018-07-22T11:38:30.616Z,101095.27
2018-07-22T11:39:36.372Z,101095.81
2018-07-22T11:40:42.202Z,101090.23
2018-07-22T11:41:47.655Z,101085.55
2018-07-22T11:42:53.389Z,101085.91
2018-07-22T11:43:59.507Z,101087.13
2018-07-22T11:45:05.215Z,101086.72
2018-07-22T11:46:10.681Z,101088.25
2018-07-22T11:47:16.182Z,101089.27
2018-07-22T11:48:21.788Z,101081.41
2018-07-22T11:49:26.968Z,101088.13
2018-07-22T11:50:32.307Z,101076.70
2018-07-22T11:51:38.769Z,101087.15
2018-07-22T11:52:44.451Z,101079.67
2018-07-22T11:53:50.531Z,101083.93
2018-07-22T11:54:56.080Z,101080.41
2018-07-22T11:56:01.634Z,101080.98
2018-07-22T11:57:07.331Z,101089.76
2018-07-22T11:58:13.657Z,101086.12
2018-07-22T11:59:19.181Z,101082.98
2018-07-22T12:00:24.678Z,101082.53
2018-07-22T12:01:30.164Z,101082.02
2018-07-22T12:02:35.576Z,101081.59
2018-07-22T12:03:41.163Z,101081.22
2018-07-22T12:04:46.658Z,101084.41
2018-07-22T12:05:52.155Z,101089.72
2018-07-22T12:06:57.728Z,101090.09
2018-07-22T12:08:03.126Z,101088.23
2018-07-22T12:09:11.322Z,101089.09
2018-07-22T12:10:16.765Z,101089.77
2018-07-22T12:11:22.278Z,101084.59
2018-07-22T12:12:27.793Z,101084.29
2018-07-22T12:13:33.216Z,101081.29
2018-07-22T12:14:38.632Z,101084.57
2018-07-22T12:15:44.090Z,101078.61
2018-07-22T12:16:49.572Z,101079.47
2018-07-22T12:17:55.372Z,101084.11
2018-07-22T12:19:00.870Z,101077.19
2018-07-22T12:20:06.460Z,101080.16
2018-07-22T12:21:11.934Z,101076.04
2018-07-22T12:22:17.404Z,101077.20
2018-07-22T12:23:22.859Z,101078.70
2018-07-22T12:24:28.149Z,101076.92
2018-07-22T12:25:33.549Z,101076.69
2018-07-22T12:26:39.022Z,101083.84
2018-07-22T12:27:44.449Z,101070.62